Time;durP1;ratioP1;P1;durP2;ratioP2;P2;SDS_P1;SDS_P2;PMS_P1;PMS_P2;Temp;Humidity;BMP_temperature;BMP_pressure;BME280_temperature;BME280_humidity;BME280_pressure;Samples;Min_cycle;Max_cycle;Signal;HPM_P1;HPM_P2
2022/07/14 00:01:14;;;;;;;3.92;2.50;;;22.50;99.90;;;;;;5092331;28;20202;-68
2022/07/14 00:03:40;;;;;;;2.90;2.40;;;22.40;99.90;;;;;;5092104;28;20301;-68
2022/07/14 00:06:06;;;;;;;3.13;2.58;;;22.30;99.90;;;;;;5092291;28;20210;-67
2022/07/14 00:08:31;;;;;;;3.35;2.90;;;22.30;99.90;;;;;;5074279;28;20259;-69
2022/07/14 00:10:57;;;;;;;4.43;2.28;;;22.20;99.90;;;;;;5091731;28;20197;-69
2022/07/14 00:13:22;;;;;;;3.47;2.70;;;22.20;99.90;;;;;;5091743;28;20293;-69
2022/07/14 00:15:48;;;;;;;5.30;2.50;;;22.20;99.90;;;;;;5077260;28;20202;-68
2022/07/14 00:18:14;;;;;;;3.35;2.63;;;22.20;99.90;;;;;;5053116;28;20325;-68
2022/07/14 00:20:39;;;;;;;4.97;2.90;;;22.10;99.90;;;;;;5072375;28;20186;-69
2022/07/14 00:23:05;;;;;;;2.60;2.40;;;22.10;99.90;;;;;;5071803;28;20207;-69
2022/07/14 00:25:30;;;;;;;2.75;2.33;;;22.00;99.90;;;;;;5091772;28;20202;-69
2022/07/14 00:27:56;;;;;;;4.72;2.80;;;22.10;99.90;;;;;;5105244;28;20202;-69
2022/07/14 00:30:22;;;;;;;3.75;2.78;;;22.00;99.90;;;;;;5094087;28;20249;-69
2022/07/14 00:32:48;;;;;;;4.22;2.67;;;22.00;99.90;;;;;;5099293;28;20171;-70
2022/07/14 00:35:14;;;;;;;3.58;2.72;;;21.90;99.90;;;;;;5053966;28;20203;-69
2022/07/14 00:37:40;;;;;;;2.85;2.50;;;21.80;99.90;;;;;;5071319;28;20215;-70
2022/07/14 00:40:06;;;;;;;3.35;2.78;;;21.80;99.90;;;;;;5071039;28;20256;-68
2022/07/14 00:42:37;;;;;;;3.95;2.55;;;21.80;99.90;;;;;;5085139;28;20210;-68
2022/07/14 00:45:06;;;;;;;4.88;3.17;;;21.80;99.90;;;;;;5091235;28;20778;-68
2022/07/14 00:47:32;;;;;;;3.78;2.95;;;21.80;99.90;;;;;;5071892;28;20218;-68
2022/07/14 00:49:58;;;;;;;3.88;3.22;;;21.80;99.90;;;;;;5090123;28;20221;-69
2022/07/14 00:52:25;;;;;;;4.75;2.90;;;21.80;99.90;;;;;;5090256;28;20202;-68
2022/07/14 00:54:51;;;;;;;3.45;2.90;;;21.60;99.90;;;;;;5090431;28;20195;-69
2022/07/14 00:57:18;;;;;;;4.20;2.78;;;21.60;99.90;;;;;;5090151;28;20701;-68
2022/07/14 00:59:44;;;;;;;4.32;3.13;;;21.70;99.90;;;;;;5053920;28;20171;-67
2022/07/14 01:02:09;;;;;;;4.00;3.33;;;21.50;99.90;;;;;;5074725;28;20203;-68
2022/07/14 01:04:35;;;;;;;4.75;2.85;;;21.50;99.90;;;;;;5074354;28;20286;-68
2022/07/14 01:07:01;;;;;;;6.97;2.92;;;21.40;99.90;;;;;;5073676;28;20242;-68
2022/07/14 01:09:26;;;;;;;2.90;2.70;;;21.30;99.90;;;;;;5073563;28;20217;-69
2022/07/14 01:11:52;;;;;;;4.88;2.80;;;21.30;99.90;;;;;;5084029;28;20650;-68
2022/07/14 01:14:17;;;;;;;6.32;2.80;;;21.30;99.90;;;;;;5093164;28;20206;-68
2022/07/14 01:16:43;;;;;;;3.92;2.65;;;21.30;99.90;;;;;;5074659;28;20276;-67
2022/07/14 01:19:09;;;;;;;2.83;2.60;;;21.20;99.90;;;;;;5056183;28;20206;-68
2022/07/14 01:21:34;;;;;;;3.78;2.90;;;21.20;99.90;;;;;;5074224;28;20216;-69
2022/07/14 01:24:00;;;;;;;4.63;2.80;;;21.20;99.90;;;;;;5074422;28;20254;-69
2022/07/14 01:26:25;;;;;;;3.80;2.90;;;21.10;99.90;;;;;;5073838;28;20582;-69
2022/07/14 01:28:51;;;;;;;4.53;2.50;;;21.10;99.90;;;;;;5055708;28;20210;-69
2022/07/14 01:31:16;;;;;;;4.80;2.60;;;21.10;99.90;;;;;;5074082;28;20206;-69
2022/07/14 01:33:42;;;;;;;4.95;2.90;;;20.90;99.90;;;;;;5093730;28;20214;-68
2022/07/14 01:36:07;;;;;;;3.70;2.13;;;20.80;99.90;;;;;;5094688;28;20195;-68
2022/07/14 01:38:33;;;;;;;5.53;2.65;;;20.80;99.90;;;;;;5075799;28;20583;-69
2022/07/14 01:40:59;;;;;;;3.25;2.30;;;20.60;99.90;;;;;;5094067;28;20210;-69
2022/07/14 01:43:24;;;;;;;12.32;2.92;;;20.60;99.90;;;;;;5094598;28;20202;-69
2022/07/14 01:45:50;;;;;;;3.33;2.13;;;20.50;99.90;;;;;;5094810;28;20222;-69
2022/07/14 01:48:15;;;;;;;4.20;2.00;;;20.30;99.90;;;;;;5094063;28;20181;-68
2022/07/14 01:50:41;;;;;;;4.82;2.13;;;20.40;99.90;;;;;;5076142;28;20174;-68
2022/07/14 01:53:07;;;;;;;6.07;2.13;;;20.30;99.90;;;;;;5093864;28;20221;-69
2022/07/14 01:55:34;;;;;;;4.43;2.00;;;20.30;99.90;;;;;;5083575;28;20260;-68
2022/07/14 01:57:59;;;;;;;3.05;2.20;;;20.40;99.90;;;;;;5073198;28;20195;-68
2022/07/14 02:00:25;;;;;;;3.05;2.40;;;20.40;99.90;;;;;;5073314;28;20190;-69
2022/07/14 02:02:50;;;;;;;4.63;2.65;;;20.30;99.90;;;;;;5074039;28;20666;-69
2022/07/14 02:05:16;;;;;;;2.90;2.45;;;20.30;99.90;;;;;;5074137;28;20703;-68
2022/07/14 02:07:42;;;;;;;5.65;2.55;;;20.20;99.90;;;;;;5089293;22;20360;-70
2022/07/14 02:12:52;;;;;;;4.97;2.72;;;20.10;99.90;;;;;;5072201;28;20761;-70
2022/07/14 02:15:18;;;;;;;5.00;2.90;;;20.20;99.90;;;;;;5055156;28;20175;-70
2022/07/14 02:17:43;;;;;;;4.13;2.65;;;20.10;99.90;;;;;;5072773;28;20198;-70
2022/07/14 02:20:10;;;;;;;4.07;2.78;;;19.90;99.90;;;;;;5054946;28;20256;-70
2022/07/14 02:22:36;;;;;;;3.83;2.17;;;19.80;99.90;;;;;;5072720;28;20260;-70
2022/07/14 02:25:02;;;;;;;5.28;2.13;;;19.80;99.90;;;;;;5069909;28;20641;-72
2022/07/14 02:27:27;;;;;;;3.03;2.65;;;19.70;99.90;;;;;;5075173;28;20202;-70
2022/07/14 02:29:53;;;;;;;6.25;2.22;;;19.70;99.90;;;;;;5072925;28;20221;-70
2022/07/14 02:32:18;;;;;;;3.58;2.13;;;19.60;99.90;;;;;;5054646;28;20199;-70
2022/07/14 02:34:44;;;;;;;5.05;2.47;;;19.60;99.90;;;;;;5054412;28;20392;-70
2022/07/14 02:37:10;;;;;;;3.75;2.08;;;19.60;99.90;;;;;;5072432;28;20207;-69
2022/07/14 02:39:35;;;;;;;8.77;3.80;;;19.70;99.90;;;;;;5054046;28;20203;-70
2022/07/14 02:42:01;;;;;;;6.25;2.70;;;19.70;99.90;;;;;;5072986;28;20179;-72
2022/07/14 02:44:26;;;;;;;6.30;3.40;;;19.60;99.90;;;;;;5072212;28;20195;-70
2022/07/14 02:46:52;;;;;;;8.35;3.83;;;19.60;99.90;;;;;;5072410;28;20257;-71
2022/07/14 02:49:18;;;;;;;9.35;3.05;;;19.60;99.90;;;;;;5054654;28;20693;-71
2022/07/14 02:51:43;;;;;;;13.60;3.90;;;19.50;99.90;;;;;;5053613;28;20207;-70
2022/07/14 02:54:09;;;;;;;9.63;3.92;;;19.60;99.90;;;;;;5072188;28;20262;-70
2022/07/14 02:56:34;;;;;;;3.70;2.22;;;19.50;99.90;;;;;;5072223;28;20178;-70
2022/07/14 02:59:00;;;;;;;8.23;2.45;;;19.40;99.90;;;;;;5053881;28;20203;-71
2022/07/14 03:01:26;;;;;;;9.98;3.28;;;19.40;99.90;;;;;;5054000;28;20207;-70
2022/07/14 03:03:51;;;;;;;6.60;2.30;;;19.30;99.90;;;;;;5072593;28;20203;-71
2022/07/14 03:06:19;;;;;;;8.57;2.67;;;19.20;99.90;;;;;;5072029;28;20544;-71
2022/07/14 03:08:45;;;;;;;7.65;2.22;;;19.10;99.90;;;;;;5071645;28;20222;-72
2022/07/14 03:11:11;;;;;;;7.75;2.30;;;19.20;99.90;;;;;;5054011;28;20252;-71
2022/07/14 03:13:37;;;;;;;11.00;2.83;;;19.10;99.90;;;;;;5071816;28;20199;-70
2022/07/14 03:16:06;;;;;;;6.70;3.13;;;19.10;99.90;;;;;;5053725;28;20203;-70
2022/07/14 03:18:32;;;;;;;10.07;2.28;;;19.20;99.90;;;;;;5044949;28;20207;-71
2022/07/14 03:20:57;;;;;;;8.10;2.53;;;19.40;99.90;;;;;;5054389;28;20182;-71
2022/07/14 03:23:23;;;;;;;7.72;2.50;;;19.40;99.90;;;;;;5071328;28;20205;-71
2022/07/14 03:25:49;;;;;;;6.88;2.35;;;19.40;99.90;;;;;;5071535;28;20211;-71
2022/07/14 03:28:15;;;;;;;8.35;2.38;;;19.50;99.90;;;;;;5070752;28;20202;-71
2022/07/14 03:30:42;;;;;;;7.35;2.55;;;19.40;99.90;;;;;;5053651;28;20301;-69
2022/07/14 03:33:08;;;;;;;5.18;2.45;;;19.40;99.90;;;;;;5045885;28;20552;-70
2022/07/14 03:35:37;;;;;;;9.10;2.85;;;19.40;99.90;;;;;;5053364;28;20260;-70
2022/07/14 03:38:03;;;;;;;10.13;2.38;;;19.50;99.90;;;;;;5070837;28;20210;-70
2022/07/14 03:40:28;;;;;;;7.95;2.65;;;19.60;99.90;;;;;;5071037;28;20673;-70
2022/07/14 03:42:54;;;;;;;6.47;2.35;;;19.50;99.90;;;;;;5053234;28;20209;-71
2022/07/14 03:45:19;;;;;;;9.32;2.50;;;19.50;99.90;;;;;;5053164;28;20553;-71
2022/07/14 03:47:45;;;;;;;9.30;2.47;;;19.80;99.90;;;;;;5071533;28;20671;-71
2022/07/14 03:50:11;;;;;;;9.65;2.65;;;20.10;99.90;;;;;;5054580;28;20235;-70
2022/07/14 03:52:36;;;;;;;6.95;2.38;;;20.10;99.90;;;;;;5051599;28;20214;-71
2022/07/14 03:55:02;;;;;;;8.25;2.25;;;20.10;99.90;;;;;;5069728;28;20211;-72
2022/07/14 03:57:28;;;;;;;7.50;2.50;;;19.80;99.90;;;;;;5070216;28;20344;-71
2022/07/14 03:59:54;;;;;;;10.75;2.75;;;19.80;99.90;;;;;;5071215;28;20167;-69
2022/07/14 04:02:19;;;;;;;8.73;2.58;;;20.50;99.90;;;;;;5053271;28;20815;-70
2022/07/14 04:04:45;;;;;;;5.55;1.90;;;20.60;99.90;;;;;;5070485;28;20206;-70
2022/07/14 04:07:11;;;;;;;8.98;2.47;;;20.20;99.90;;;;;;5054042;28;21052;-70
2022/07/14 04:09:37;;;;;;;11.77;2.83;;;19.80;99.90;;;;;;5051177;28;20654;-71
2022/07/14 04:12:02;;;;;;;6.88;1.92;;;19.60;99.90;;;;;;5071698;28;20680;-70
2022/07/14 04:14:28;;;;;;;6.25;2.28;;;19.50;99.90;;;;;;5070624;28;20260;-71
2022/07/14 04:16:54;;;;;;;11.00;2.50;;;19.70;99.90;;;;;;5056510;28;20310;-70
2022/07/14 04:19:19;;;;;;;9.57;2.42;;;19.90;99.90;;;;;;5066729;28;20683;-71
2022/07/14 04:21:45;;;;;;;6.32;2.60;;;21.80;99.90;;;;;;5070399;28;20195;-70
2022/07/14 04:24:11;;;;;;;8.93;2.67;;;23.20;99.90;;;;;;5070419;28;20179;-69
2022/07/14 04:26:37;;;;;;;11.52;2.55;;;24.00;99.90;;;;;;5070341;28;20263;-70
2022/07/14 04:29:04;;;;;;;7.38;1.90;;;25.50;99.90;;;;;;5070450;28;20298;-70
2022/07/14 04:31:30;;;;;;;8.88;2.50;;;26.60;99.90;;;;;;5070344;28;20210;-70
2022/07/14 04:33:56;;;;;;;6.15;2.10;;;27.50;99.90;;;;;;5051351;28;20199;-70
2022/07/14 04:36:23;;;;;;;7.00;2.15;;;27.20;99.90;;;;;;5069445;28;20270;-70
2022/07/14 04:38:48;;;;;;;6.00;2.30;;;28.40;99.90;;;;;;5070855;28;20300;-70
2022/07/14 04:41:14;;;;;;;6.45;1.85;;;29.30;99.90;;;;;;5070621;28;20700;-71
2022/07/14 04:43:39;;;;;;;5.05;2.22;;;28.20;99.90;;;;;;5070357;28;20583;-70
2022/07/14 04:46:05;;;;;;;5.50;1.90;;;27.40;99.90;;;;;;5052302;28;20211;-71
2022/07/14 04:52:01;;;;;;;6.43;2.20;;;28.20;99.90;;;;;;5070241;28;20348;-69
2022/07/14 04:54:01;;;;;;;6.63;2.20;;;30.00;99.90;;;;;;5070741;28;20186;-70
2022/07/14 04:56:26;;;;;;;7.15;2.47;;;30.50;99.90;;;;;;5052252;28;20202;-71
2022/07/14 05:02:29;;;;;;;9.73;2.47;;;30.30;99.90;;;;;;5070498;28;20268;-69
2022/07/14 05:04:54;;;;;;;7.25;2.53;;;31.50;98.20;;;;;;5063598;28;20234;-72
2022/07/14 05:07:20;;;;;;;6.72;2.33;;;31.90;97.50;;;;;;5070062;28;20242;-70
2022/07/14 05:09:46;;;;;;;4.93;2.28;;;31.40;96.30;;;;;;5070004;28;20209;-70
2022/07/14 05:12:13;;;;;;;7.72;2.08;;;29.70;96.80;;;;;;5069947;28;20225;-70
2022/07/14 05:14:39;;;;;;;8.48;2.00;;;29.70;98.60;;;;;;5070507;28;20201;-70
2022/07/14 05:17:04;;;;;;;7.85;2.00;;;29.90;98.30;;;;;;5070006;28;20203;-70
2022/07/14 05:19:30;;;;;;;5.75;2.28;;;30.60;98.00;;;;;;5069386;28;20705;-71
2022/07/14 05:21:55;;;;;;;5.10;1.90;;;31.80;96.40;;;;;;5052087;28;20195;-71
2022/07/14 05:24:22;;;;;;;7.55;2.08;;;31.80;95.10;;;;;;5069986;28;20179;-71
2022/07/14 05:26:47;;;;;;;7.70;2.33;;;32.60;94.40;;;;;;5070301;28;20195;-70
2022/07/14 05:29:13;;;;;;;6.57;2.00;;;33.40;93.20;;;;;;5069580;28;20209;-70
2022/07/14 05:31:39;;;;;;;6.10;2.40;;;33.60;91.70;;;;;;5069807;28;20305;-70
2022/07/14 05:34:06;;;;;;;7.35;2.40;;;33.40;91.10;;;;;;5069794;28;20210;-72
2022/07/14 05:36:31;;;;;;;6.60;2.20;;;33.20;91.00;;;;;;5073487;28;20213;-70
2022/07/14 05:38:57;;;;;;;4.38;1.75;;;33.50;90.20;;;;;;5070012;28;20198;-70
2022/07/14 05:41:22;;;;;;;5.78;2.30;;;33.50;90.40;;;;;;5069524;28;20259;-70
2022/07/14 05:43:48;;;;;;;5.22;2.00;;;33.60;89.90;;;;;;5056494;28;20282;-70
2022/07/14 05:46:14;;;;;;;7.55;2.92;;;33.40;89.20;;;;;;5066921;28;20706;-71
2022/07/14 05:48:41;;;;;;;5.75;2.30;;;32.90;89.10;;;;;;5072632;28;20218;-70
2022/07/14 05:51:10;;;;;;;8.27;2.60;;;33.40;88.60;;;;;;5055895;28;20166;-70
2022/07/14 05:53:36;;;;;;;5.68;2.38;;;33.60;87.70;;;;;;5073391;28;20828;-70
2022/07/14 05:56:03;;;;;;;4.95;2.10;;;33.00;88.70;;;;;;5057865;28;20268;-70
2022/07/14 05:58:29;;;;;;;9.27;3.10;;;32.80;88.50;;;;;;5070442;28;20206;-71
2022/07/14 06:00:55;;;;;;;6.60;2.42;;;32.60;88.00;;;;;;5073186;28;20209;-70
2022/07/14 06:03:20;;;;;;;6.60;2.33;;;32.70;88.20;;;;;;5072944;28;20179;-74
2022/07/14 06:05:46;;;;;;;6.57;2.25;;;32.10;88.80;;;;;;5057300;28;20210;-70
2022/07/14 06:08:12;;;;;;;5.82;2.17;;;32.70;88.60;;;;;;5068116;28;20222;-70
2022/07/14 06:10:38;;;;;;;7.07;2.40;;;33.00;87.60;;;;;;5072903;28;20704;-70
2022/07/14 06:13:03;;;;;;;7.85;2.70;;;33.20;86.70;;;;;;5072792;28;20203;-70
2022/07/14 06:15:29;;;;;;;9.40;3.60;;;33.60;86.20;;;;;;5072812;28;20202;-71
2022/07/14 06:17:55;;;;;;;5.47;2.28;;;33.60;84.60;;;;;;5073120;28;20195;-72
2022/07/14 06:20:21;;;;;;;8.18;2.60;;;33.30;85.10;;;;;;5072373;28;20321;-72
2022/07/14 06:22:48;;;;;;;5.97;2.47;;;33.80;84.60;;;;;;5072858;28;20203;-71
2022/07/14 06:25:13;;;;;;;5.18;2.25;;;34.20;83.40;;;;;;5054814;28;20220;-71
2022/07/14 06:27:39;;;;;;;7.88;2.72;;;34.30;82.80;;;;;;5054439;28;20211;-71
2022/07/14 06:30:06;;;;;;;6.65;2.10;;;34.50;81.80;;;;;;5073089;28;20217;-70
2022/07/14 06:32:32;;;;;;;7.68;2.47;;;32.00;83.80;;;;;;5072316;28;20263;-70
2022/07/14 06:34:58;;;;;;;4.85;1.92;;;31.50;87.40;;;;;;5072938;28;20621;-70
2022/07/14 06:37:24;;;;;;;6.20;1.98;;;31.80;86.80;;;;;;5075071;28;20203;-70
2022/07/14 06:39:50;;;;;;;6.90;2.25;;;31.70;88.00;;;;;;5072212;28;20541;-70
2022/07/14 06:42:16;;;;;;;6.40;2.20;;;31.60;86.40;;;;;;5072448;28;20547;-70
2022/07/14 06:44:41;;;;;;;7.38;2.20;;;31.50;87.70;;;;;;5054613;28;20170;-70
2022/07/14 06:47:07;;;;;;;5.60;1.92;;;31.20;88.10;;;;;;5072113;28;20221;-70
2022/07/14 06:49:32;;;;;;;4.45;1.60;;;31.90;87.20;;;;;;5071653;28;20202;-70
2022/07/14 06:51:58;;;;;;;8.52;2.35;;;32.20;84.60;;;;;;5071881;28;20717;-70
2022/07/14 06:54:24;;;;;;;5.07;1.80;;;31.30;86.30;;;;;;5071880;28;20698;-71
2022/07/14 06:56:49;;;;;;;6.93;2.08;;;30.80;87.80;;;;;;5072310;28;20178;-70
2022/07/14 06:59:15;;;;;;;3.83;1.70;;;31.80;86.90;;;;;;5070389;28;20202;-70
2022/07/14 07:01:40;;;;;;;5.90;2.00;;;32.80;84.40;;;;;;5053854;28;20210;-71
2022/07/14 07:04:06;;;;;;;5.38;2.03;;;33.50;82.90;;;;;;5062486;28;20207;-71
2022/07/14 07:06:44;;;;;;;6.90;1.77;;;32.60;81.10;;;;;;5071560;28;20221;-69
2022/07/14 07:09:14;;;;;;;3.63;1.55;;;32.70;80.30;;;;;;5055028;28;20194;-69
2022/07/14 07:11:41;;;;;;;4.68;1.50;;;33.20;80.30;;;;;;5070867;28;20186;-71
2022/07/14 07:14:07;;;;;;;4.47;1.77;;;33.50;78.40;;;;;;5071673;28;20211;-68
2022/07/14 07:16:33;;;;;;;3.78;1.20;;;33.70;78.20;;;;;;5071285;28;20217;-70
2022/07/14 07:18:59;;;;;;;4.45;1.80;;;33.20;77.20;;;;;;5071162;28;20210;-71
2022/07/14 07:21:24;;;;;;;2.90;1.60;;;33.40;76.70;;;;;;5078085;28;20224;-71
2022/07/14 07:23:51;;;;;;;3.45;1.45;;;32.80;76.60;;;;;;5072036;28;20251;-71
2022/07/14 07:26:17;;;;;;;4.75;2.17;;;33.10;77.70;;;;;;5071054;28;20977;-71
2022/07/14 07:28:43;;;;;;;4.00;1.63;;;33.60;75.10;;;;;;5072172;28;20301;-68
2022/07/14 07:31:09;;;;;;;4.43;1.30;;;34.20;74.20;;;;;;5071246;28;20671;-69
2022/07/14 07:33:35;;;;;;;4.45;1.70;;;34.40;73.90;;;;;;5071067;28;20230;-70
2022/07/14 07:36:01;;;;;;;3.08;1.63;;;34.30;72.50;;;;;;5071697;28;20225;-69
2022/07/14 07:38:27;;;;;;;4.50;2.08;;;34.70;72.50;;;;;;5070750;28;20232;-70
2022/07/14 07:40:54;;;;;;;4.55;1.80;;;35.30;72.50;;;;;;5071074;28;20698;-69
2022/07/14 07:43:23;;;;;;;3.33;1.67;;;35.30;70.90;;;;;;5070809;28;20562;-70
2022/07/14 07:45:49;;;;;;;4.00;2.03;;;36.10;70.20;;;;;;5071100;28;20210;-69
2022/07/14 07:48:15;;;;;;;4.20;1.80;;;36.00;69.30;;;;;;5070563;28;20746;-69
2022/07/14 07:50:43;;;;;;;4.70;1.50;;;35.50;68.80;;;;;;5053331;28;20194;-68
2022/07/14 07:53:10;;;;;;;6.28;2.20;;;35.60;69.30;;;;;;5052780;28;20203;-69
2022/07/14 07:55:35;;;;;;;4.18;2.05;;;35.20;69.10;;;;;;5070747;28;20223;-69
2022/07/14 07:58:01;;;;;;;3.40;1.60;;;34.50;70.00;;;;;;5070599;28;20604;-69
2022/07/14 08:00:27;;;;;;;6.43;1.70;;;35.30;69.40;;;;;;5052547;28;20181;-69
2022/07/14 08:02:54;;;;;;;2.20;1.50;;;34.80;68.70;;;;;;5071148;28;20193;-69
2022/07/14 08:05:22;;;;;;;4.43;1.83;;;35.60;67.40;;;;;;5070617;28;20236;-69
2022/07/14 08:07:48;;;;;;;4.97;1.50;;;35.40;66.20;;;;;;5083771;22;20213;-69
2022/07/14 08:10:14;;;;;;;2.85;1.40;;;34.80;67.30;;;;;;5065980;28;20249;-69
2022/07/14 08:12:41;;;;;;;3.00;1.35;;;34.50;66.80;;;;;;5067886;28;20214;-70
2022/07/14 08:15:07;;;;;;;4.70;1.73;;;34.50;68.30;;;;;;5051321;28;20206;-69
2022/07/14 08:17:33;;;;;;;6.85;1.83;;;34.30;68.30;;;;;;5061954;28;20230;-69
2022/07/14 08:19:59;;;;;;;3.80;1.70;;;34.80;67.90;;;;;;5064867;28;20270;-68
2022/07/14 08:22:25;;;;;;;3.67;1.27;;;34.40;67.30;;;;;;5050526;28;20294;-69
2022/07/14 08:24:52;;;;;;;3.63;1.77;;;34.40;67.40;;;;;;5050767;28;20199;-69
2022/07/14 08:27:17;;;;;;;4.43;1.88;;;34.70;68.00;;;;;;5066714;28;20785;-69
2022/07/14 08:29:43;;;;;;;3.03;1.58;;;35.00;67.20;;;;;;5070659;28;20282;-69
2022/07/14 08:32:09;;;;;;;3.20;1.63;;;35.00;65.50;;;;;;5070392;28;20222;-69
2022/07/14 08:34:34;;;;;;;3.65;1.55;;;33.70;66.10;;;;;;5070604;28;20636;-69
2022/07/14 08:37:00;;;;;;;3.70;1.52;;;33.30;67.70;;;;;;5070751;28;20198;-69
2022/07/14 08:39:27;;;;;;;2.72;1.13;;;33.80;68.10;;;;;;5070132;28;20220;-69
2022/07/14 08:41:54;;;;;;;4.40;1.52;;;33.80;67.40;;;;;;5068629;28;20198;-69
2022/07/14 08:44:20;;;;;;;3.72;1.10;;;34.20;68.50;;;;;;5049159;28;20688;-69
2022/07/14 08:46:47;;;;;;;4.43;1.55;;;34.20;67.10;;;;;;5050398;28;20691;-69
2022/07/14 08:49:14;;;;;;;4.60;1.45;;;34.30;67.30;;;;;;5049755;28;20218;-69
2022/07/14 08:51:42;;;;;;;3.30;1.25;;;35.00;67.10;;;;;;5050412;28;20713;-69
2022/07/14 08:54:11;;;;;;;2.00;1.10;;;35.10;66.40;;;;;;5050791;28;20507;-68
2022/07/14 08:56:38;;;;;;;2.95;1.58;;;35.20;66.20;;;;;;5050483;28;20207;-69
2022/07/14 08:59:04;;;;;;;4.68;1.25;;;35.00;66.50;;;;;;5049949;28;20211;-69
2022/07/14 09:01:30;;;;;;;3.55;1.42;;;34.70;65.70;;;;;;5051755;28;20606;-70
2022/07/14 09:03:56;;;;;;;3.90;1.48;;;34.20;67.50;;;;;;5070210;28;20302;-69
2022/07/14 09:06:43;;;;;;;2.40;1.20;;;34.10;66.00;;;;;;5070278;28;20198;-69
2022/07/14 09:09:08;;;;;;;5.65;1.80;;;33.70;67.40;;;;;;5069908;28;20213;-70
2022/07/14 09:11:34;;;;;;;8.55;1.58;;;34.20;66.50;;;;;;5062262;28;20167;-70
2022/07/14 09:14:10;;;;;;;4.72;2.75;;;34.20;66.30;;;;;;5070111;28;20332;-69
2022/07/14 09:16:36;;;;;;;11.82;7.10;;;33.90;66.00;;;;;;5064167;28;20199;-70
2022/07/14 09:19:09;;;;;;;8.13;3.85;;;33.90;66.70;;;;;;5049852;28;20207;-70
2022/07/14 09:21:40;;;;;;;6.82;4.88;;;33.90;66.40;;;;;;5071090;28;20567;-69
2022/07/14 09:24:07;;;;;;;4.50;2.50;;;33.70;66.60;;;;;;5074381;28;20654;-69
2022/07/14 09:26:45;;;;;;;4.05;1.55;;;33.90;66.60;;;;;;5073951;28;20233;-70
2022/07/14 09:29:20;;;;;;;3.22;1.45;;;33.20;65.80;;;;;;5066279;28;20207;-69
2022/07/14 09:31:47;;;;;;;2.55;1.23;;;33.50;66.10;;;;;;5052577;28;20207;-69
2022/07/14 09:34:26;;;;;;;3.35;1.08;;;33.30;67.00;;;;;;5053792;28;20199;-70
2022/07/14 09:36:52;;;;;;;4.90;1.83;;;31.90;67.40;;;;;;5066516;28;20213;-70
2022/07/14 09:39:18;;;;;;;4.25;1.30;;;30.40;68.50;;;;;;5055601;28;20188;-69
2022/07/14 09:41:54;;;;;;;4.18;1.60;;;30.00;70.50;;;;;;5054046;28;20249;-69
2022/07/14 09:44:21;;;;;;;4.72;2.40;;;29.20;72.70;;;;;;5053730;28;20655;-69
2022/07/14 09:46:51;;;;;;;5.78;1.85;;;29.80;72.60;;;;;;5053616;28;20216;-69
2022/07/14 09:49:19;;;;;;;2.40;1.23;;;30.00;72.70;;;;;;5053007;28;20715;-69
2022/07/14 09:51:54;;;;;;;2.22;1.30;;;30.00;71.30;;;;;;5069921;28;20566;-69
2022/07/14 09:54:38;;;;;;;4.35;1.38;;;29.30;73.10;;;;;;5053567;28;20206;-70
2022/07/14 09:57:13;;;;;;;6.53;3.40;;;29.30;73.00;;;;;;5053511;28;20234;-70
2022/07/14 09:59:45;;;;;;;4.32;1.13;;;29.50;73.70;;;;;;5053113;28;20203;-70
2022/07/14 10:02:19;;;;;;;6.93;1.73;;;29.70;72.70;;;;;;5053110;28;20318;-70
2022/07/14 10:04:45;;;;;;;2.17;1.00;;;29.70;73.20;;;;;;5056225;28;20207;-69
2022/07/14 10:07:12;;;;;;;4.35;0.98;;;29.70;70.10;;;;;;5073127;28;20226;-70
2022/07/14 10:09:42;;;;;;;2.22;1.23;;;29.30;70.40;;;;;;5072643;28;20226;-70
2022/07/14 10:12:08;;;;;;;5.05;1.27;;;29.10;72.30;;;;;;5072976;28;20554;-70
2022/07/14 10:14:34;;;;;;;3.60;0.77;;;29.50;72.00;;;;;;5073194;28;20238;-70
2022/07/14 10:17:01;;;;;;;3.10;1.25;;;29.70;71.40;;;;;;5063583;28;20207;-69
2022/07/14 10:19:27;;;;;;;2.88;1.15;;;29.50;69.70;;;;;;5051380;28;20211;-69
2022/07/14 10:21:55;;;;;;;4.43;1.58;;;29.00;69.50;;;;;;5052739;28;20204;-69
2022/07/14 10:24:23;;;;;;;3.42;1.30;;;28.50;72.30;;;;;;5052693;28;20184;-69
2022/07/14 10:26:50;;;;;;;4.82;1.33;;;28.60;72.10;;;;;;5053071;28;20232;-69
2022/07/14 10:29:15;;;;;;;5.63;1.42;;;28.00;72.50;;;;;;5052214;28;20203;-69
2022/07/14 10:32:11;;;;;;;6.93;2.47;;;28.10;73.80;;;;;;5052344;28;20269;-68
2022/07/14 10:35:07;;;;;;;2.15;0.93;;;28.20;73.20;;;;;;5026717;28;20593;-68
2022/07/14 10:37:54;;;;;;;4.38;1.33;;;27.90;73.20;;;;;;5060593;28;20204;-70
2022/07/14 10:40:36;;;;;;;2.08;0.80;;;28.20;72.60;;;;;;5052242;28;20203;-69
2022/07/14 10:43:12;;;;;;;4.35;1.20;;;28.00;70.10;;;;;;5051111;28;20203;-69
2022/07/14 10:45:54;;;;;;;6.82;1.30;;;28.30;70.60;;;;;;5050575;28;20803;-69
2022/07/14 10:48:39;;;;;;;4.60;1.33;;;27.30;70.20;;;;;;5051892;28;20191;-69
2022/07/14 10:51:14;;;;;;;3.75;0.90;;;27.10;71.80;;;;;;5059227;28;20171;-69
2022/07/14 10:54:09;;;;;;;3.75;1.08;;;27.30;71.10;;;;;;5072620;28;20206;-69
2022/07/14 10:56:36;;;;;;;2.45;0.82;;;27.80;71.00;;;;;;5071951;28;20555;-69
2022/07/14 10:59:26;;;;;;;4.03;0.65;;;27.90;69.70;;;;;;5070349;28;20206;-69
2022/07/14 11:02:10;;;;;;;2.72;0.70;;;27.60;69.00;;;;;;5044873;28;20196;-68
2022/07/14 11:07:43;;;;;;;1.92;0.70;;;26.90;71.70;;;;;;5051047;28;20226;-67
2022/07/14 11:10:14;;;;;;;2.83;0.70;;;26.50;73.40;;;;;;5051070;28;20227;-68
2022/07/14 11:13:09;;;;;;;2.13;1.10;;;27.00;73.00;;;;;;5051765;28;20215;-68
2022/07/14 11:15:35;;;;;;;13.10;6.90;;;27.30;72.30;;;;;;5050161;28;20238;-68
2022/07/14 11:18:20;;;;;;;4.88;1.75;;;27.70;72.30;;;;;;5052626;28;20225;-68
2022/07/14 11:20:51;;;;;;;2.78;0.75;;;27.90;71.60;;;;;;5059096;28;20212;-66
2022/07/14 11:23:23;;;;;;;4.47;1.10;;;28.10;71.70;;;;;;5067476;28;20217;-69
2022/07/14 11:25:53;;;;;;;1.70;0.82;;;28.30;71.50;;;;;;5061148;28;20212;-67
2022/07/14 11:28:48;;;;;;;3.28;1.08;;;27.80;70.60;;;;;;5052635;28;20199;-68
2022/07/14 11:31:15;;;;;;;3.70;0.90;;;27.40;71.20;;;;;;5052539;28;20210;-71
2022/07/14 11:36:30;;;;;;;2.47;0.85;;;26.80;72.60;;;;;;5055540;28;20230;-72
2022/07/14 11:39:17;;;;;;;1.85;0.85;;;27.00;72.90;;;;;;5062216;28;20198;-71
2022/07/14 11:41:43;;;;;;;3.38;1.10;;;27.20;72.60;;;;;;5063803;28;20508;-71
2022/07/14 11:44:43;;;;;;;1.15;0.50;;;27.30;72.90;;;;;;5055370;28;20211;-73
2022/07/14 11:47:29;;;;;;;1.50;0.60;;;27.00;73.10;;;;;;5055288;28;20211;-70
2022/07/14 11:50:06;;;;;;;1.83;0.63;;;26.80;74.50;;;;;;5051396;28;20211;-69
2022/07/14 11:52:38;;;;;;;3.65;0.70;;;27.10;74.00;;;;;;5049666;28;20222;-72
2022/07/14 11:55:06;;;;;;;2.40;0.80;;;27.30;74.30;;;;;;5058035;28;20580;-70
2022/07/14 11:57:32;;;;;;;3.80;1.05;;;27.70;73.40;;;;;;5063548;28;20234;-71
2022/07/14 12:00:08;;;;;;;3.92;0.93;;;27.80;73.30;;;;;;5070678;28;20569;-70
2022/07/14 12:02:51;;;;;;;2.63;1.23;;;27.30;74.00;;;;;;5051471;28;20218;-69
2022/07/14 12:05:17;;;;;;;2.30;0.60;;;27.50;73.80;;;;;;5050399;28;20673;-72
2022/07/14 12:07:50;;;;;;;0.82;0.30;;;27.70;73.40;;;;;;5050800;28;20301;-70
2022/07/14 12:10:36;;;;;;;2.70;0.65;;;27.30;71.50;;;;;;5050806;28;20204;-71
2022/07/14 12:13:03;;;;;;;2.15;1.20;;;26.70;70.80;;;;;;5053359;28;20230;-69
2022/07/14 12:15:29;;;;;;;3.38;1.60;;;26.70;71.60;;;;;;5052749;28;20231;-75
2022/07/14 12:17:55;;;;;;;2.17;0.80;;;26.70;70.70;;;;;;5053050;28;20826;-74
2022/07/14 12:20:23;;;;;;;4.57;0.88;;;26.10;70.90;;;;;;5050135;28;20334;-70
2022/07/14 12:22:54;;;;;;;3.63;0.95;;;26.10;72.40;;;;;;5047050;28;20207;-70
2022/07/14 12:25:28;;;;;;;2.80;1.05;;;26.30;73.20;;;;;;5055377;28;20203;-69
2022/07/14 12:27:55;;;;;;;3.83;0.80;;;26.20;72.80;;;;;;5040494;28;20298;-69
2022/07/14 12:30:21;;;;;;;3.92;0.93;;;26.30;72.70;;;;;;5049375;28;20195;-74
2022/07/14 12:32:55;;;;;;;2.40;0.82;;;26.10;72.40;;;;;;5049344;28;20219;-68
2022/07/14 12:35:21;;;;;;;3.97;0.88;;;26.00;72.00;;;;;;5048150;28;20245;-69
2022/07/14 12:37:49;;;;;;;1.40;0.57;;;25.90;72.40;;;;;;5050683;28;20269;-68
2022/07/14 12:40:15;;;;;;;8.00;2.28;;;25.90;70.80;;;;;;5049306;28;20784;-68
2022/07/14 12:42:41;;;;;;;2.00;0.77;;;25.90;70.20;;;;;;5050446;28;20617;-68
2022/07/14 12:45:07;;;;;;;4.68;1.65;;;26.00;70.30;;;;;;5051096;28;20164;-68
2022/07/14 12:47:55;;;;;;;3.78;1.48;;;25.90;71.50;;;;;;5050676;28;20210;-69
2022/07/14 12:50:23;;;;;;;4.25;1.52;;;25.90;72.40;;;;;;5049511;28;20280;-69
2022/07/14 12:52:53;;;;;;;1.98;1.13;;;26.00;71.60;;;;;;5051326;28;20208;-69
2022/07/14 12:55:32;;;;;;;4.70;0.90;;;26.00;70.20;;;;;;5051772;28;20700;-69
2022/07/14 12:58:08;;;;;;;2.40;0.80;;;26.00;71.10;;;;;;5047700;28;20266;-69
2022/07/14 13:00:35;;;;;;;3.92;1.70;;;26.10;71.10;;;;;;5056164;28;20211;-70
2022/07/14 13:03:19;;;;;;;0.88;0.70;;;26.00;72.10;;;;;;5074814;28;20216;-69
2022/07/14 13:05:54;;;;;;;1.75;0.68;;;26.10;68.50;;;;;;5072151;28;20238;-68